Time;durP1;ratioP1;P1;durP2;ratioP2;P2;SDS_P1;SDS_P2;PMS_P1;PMS_P2;Temp;Humidity;BMP_temperature;BMP_pressure;BME280_temperature;BME280_humidity;BME280_pressure;Samples;Min_cycle;Max_cycle;Signal;HPM_P1;HPM_P2
2022/08/25 00:01:38;;;;;;;6.25;5.88;;;;;;;21.45;57.48;101295.25;6033102;23;20018;-88
2022/08/25 00:04:09;;;;;;;7.45;7.03;;;;;;;21.71;57.97;101327.66;6073089;23;20029;-87
2022/08/25 00:06:38;;;;;;;6.15;5.75;;;;;;;21.74;57.81;101352.41;6025304;23;20015;-88
2022/08/25 00:09:07;;;;;;;6.70;6.32;;;;;;;18.96;57.31;100902.75;6067721;23;20064;-88
2022/08/25 00:11:35;;;;;;;6.45;6.13;;;;;;;22.09;57.17;101382.16;6048452;23;20359;-87
2022/08/25 00:14:05;;;;;;;5.95;5.65;;;;;;;22.09;56.95;101392.84;6074258;23;20014;-86
2022/08/25 00:16:32;;;;;;;6.63;6.15;;;;;;;20.16;56.26;101108.22;6017537;23;20003;-89
2022/08/25 00:19:04;;;;;;;6.40;5.95;;;;;;;22.11;55.93;101382.03;6075133;23;20087;-87
2022/08/25 00:21:31;;;;;;;6.25;5.85;;;;;;;21.94;55.96;101366.66;5997859;23;20468;-87
2022/08/25 00:23:58;;;;;;;6.00;5.60;;;;;;;21.86;55.84;101362.00;6079116;23;20010;-87
2022/08/25 00:26:26;;;;;;;6.57;6.07;;;;;;;21.80;56.13;101335.81;6040117;23;20120;-86
2022/08/25 00:28:53;;;;;;;5.57;5.28;;;;;;;21.47;55.91;101273.78;6104922;23;20029;-87
2022/08/25 00:31:27;;;;;;;6.43;6.03;;;;;;;19.56;55.69;100975.66;6058211;23;20018;-89
2022/08/25 00:34:08;;;;;;;6.05;5.75;;;;;;;22.08;55.88;101382.28;6083890;23;20042;-88
2022/08/25 00:36:34;;;;;;;6.13;5.80;;;;;;;21.46;55.83;101299.59;6030415;23;20280;-88
2022/08/25 00:39:01;;;;;;;5.97;5.68;;;;;;;21.86;56.34;101376.19;6093886;23;20037;-87
2022/08/25 00:41:28;;;;;;;6.55;6.15;;;;;;;21.58;56.33;101334.22;6034898;23;20034;-87
2022/08/25 00:43:58;;;;;;;5.82;5.53;;;;;;;18.71;56.15;100879.03;6091002;23;20029;-88
2022/08/25 00:46:31;;;;;;;6.03;5.72;;;;;;;20.89;56.48;101237.03;6032925;23;20022;-86
2022/08/25 00:49:02;;;;;;;5.95;5.65;;;;;;;21.65;56.42;101346.03;6112893;23;20121;-86
2022/08/25 00:51:49;;;;;;;6.15;5.80;;;;;;;21.86;56.14;101391.38;6028113;23;20095;-87
2022/08/25 00:54:51;;;;;;;6.50;6.20;;;;;;;21.49;57.07;101352.75;6085802;23;20105;-89
2022/08/25 00:57:21;;;;;;;7.20;6.80;;;;;;;20.92;57.93;101269.59;6032303;23;20257;-87
2022/08/25 01:00:00;;;;;;;5.80;5.50;;;;;;;20.88;58.05;101281.50;6088377;23;20525;-87
2022/08/25 01:02:27;;;;;;;6.60;5.97;;;;;;;21.00;58.70;101319.63;6034222;23;20057;-87
2022/08/25 01:04:53;;;;;;;5.70;5.40;;;;;;;19.28;58.98;101035.72;6090756;23;20025;-86
2022/08/25 01:07:23;;;;;;;6.50;6.10;;;;;;;21.14;58.64;101358.47;6035317;23;20199;-88
2022/08/25 01:09:52;;;;;;;6.18;5.78;;;;;;;21.38;59.37;101389.34;6085888;23;20033;-88
2022/08/25 01:12:19;;;;;;;6.93;6.53;;;;;;;20.85;59.34;101321.81;6039578;23;20053;-87
2022/08/25 01:14:47;;;;;;;5.88;5.55;;;;;;;21.25;59.31;101397.59;6084255;23;20101;-87
2022/08/25 01:17:13;;;;;;;7.10;6.68;;;;;;;21.18;59.96;101399.09;6032044;23;20046;-87
2022/08/25 01:19:40;;;;;;;6.30;5.80;;;;;;;20.32;60.63;101263.19;6087991;23;20057;-87
2022/08/25 01:22:07;;;;;;;6.60;6.30;;;;;;;19.47;61.79;101145.00;6041720;23;20460;-86
2022/08/25 01:24:46;;;;;;;6.45;6.05;;;;;;;20.47;62.71;101325.88;6090630;23;20345;-88
2022/08/25 01:27:13;;;;;;;6.47;6.10;;;;;;;20.21;63.04;101284.56;6043066;23;20343;-87
2022/08/25 01:29:39;;;;;;;6.45;5.90;;;;;;;20.00;62.68;101257.88;6087977;23;20097;-87
2022/08/25 01:32:09;;;;;;;6.53;6.20;;;;;;;20.31;62.11;101331.66;6043076;23;20097;-87
2022/08/25 01:34:41;;;;;;;6.03;5.63;;;;;;;20.80;61.73;101398.72;6113528;23;20064;-87
2022/08/25 01:37:10;;;;;;;6.28;5.97;;;;;;;20.32;61.42;101321.81;6034927;23;20045;-86
2022/08/25 01:39:39;;;;;;;5.75;5.45;;;;;;;20.31;61.36;101354.81;6093804;23;20091;-87
2022/08/25 01:42:07;;;;;;;6.80;6.32;;;;;;;20.75;62.02;101400.06;6081034;23;20437;-88
2022/08/25 01:44:37;;;;;;;6.03;5.63;;;;;;;20.69;62.20;101394.28;6063995;23;20011;-88
2022/08/25 01:47:04;;;;;;;6.32;6.03;;;;;;;19.78;62.00;101261.47;6098689;23;20165;-86
2022/08/25 01:49:31;;;;;;;6.25;5.85;;;;;;;20.64;62.37;101393.81;6042807;23;20024;-87
2022/08/25 01:52:05;;;;;;;6.03;5.72;;;;;;;20.61;62.58;101398.59;6112302;23;20099;-88
2022/08/25 01:54:32;;;;;;;6.32;5.97;;;;;;;19.02;62.95;101141.63;6071887;23;20006;-87
2022/08/25 01:56:59;;;;;;;6.30;5.90;;;;;;;17.49;63.04;100903.88;6096320;23;20025;-87
2022/08/25 01:59:26;;;;;;;6.05;5.65;;;;;;;20.49;62.88;101397.75;6057841;23;20427;-87
2022/08/25 02:01:52;;;;;;;5.72;5.43;;;;;;;20.47;61.98;101386.38;6127676;23;20025;-87
2022/08/25 02:04:30;;;;;;;6.15;5.75;;;;;;;20.19;61.59;101348.66;6024477;23;20167;-88
2022/08/25 02:06:59;;;;;;;5.93;5.63;;;;;;;20.10;61.64;101341.41;6107185;23;20566;-86
2022/08/25 02:09:25;;;;;;;5.75;5.35;;;;;;;19.97;61.66;101330.94;6101469;23;20025;-87
2022/08/25 02:11:52;;;;;;;5.80;5.40;;;;;;;20.17;61.77;101365.75;6066069;23;20020;-86
2022/08/25 02:14:19;;;;;;;7.45;6.88;;;;;;;19.94;62.00;101336.50;6076496;23;20022;-88
2022/08/25 02:16:48;;;;;;;5.68;5.38;;;;;;;20.31;62.52;101389.44;6056542;23;20335;-88
2022/08/25 02:19:16;;;;;;;6.65;6.25;;;;;;;19.56;62.77;101276.50;6101823;23;20022;-87
2022/08/25 02:21:42;;;;;;;5.65;5.35;;;;;;;19.33;62.35;101238.44;6079337;23;20089;-87
2022/08/25 02:24:10;;;;;;;6.45;6.15;;;;;;;20.17;62.69;101385.25;6102650;23;20089;-88
2022/08/25 02:26:37;;;;;;;5.68;5.38;;;;;;;19.42;63.06;101256.31;6061331;23;20022;-86
2022/08/25 02:29:06;;;;;;;5.60;5.20;;;;;;;18.74;62.97;101154.44;6080721;23;20021;-86
2022/08/25 02:31:33;;;;;;;5.80;5.50;;;;;;;20.01;63.20;101355.50;6060727;23;20464;-87
2022/08/25 02:34:01;;;;;;;5.70;5.40;;;;;;;19.46;63.24;101272.91;6121436;23;20013;-87
2022/08/25 02:36:28;;;;;;;6.00;5.70;;;;;;;20.23;63.00;101416.72;6062498;23;20020;-87
2022/08/25 02:38:54;;;;;;;5.90;5.60;;;;;;;20.23;62.88;101394.56;6124879;23;20502;-87
2022/08/25 02:41:23;;;;;;;6.30;6.00;;;;;;;19.96;62.53;101402.97;6066945;23;20363;-86
2022/08/25 02:43:58;;;;;;;5.80;5.50;;;;;;;19.77;62.55;101321.91;6078971;23;20014;-86
2022/08/25 02:46:24;;;;;;;6.78;6.38;;;;;;;19.38;63.30;101286.81;6114635;23;20475;-86
2022/08/25 02:48:52;;;;;;;5.95;5.65;;;;;;;19.92;63.60;101338.44;6082450;23;20022;-87
2022/08/25 02:51:25;;;;;;;6.68;6.18;;;;;;;20.15;64.26;101373.03;6118826;23;20052;-86
2022/08/25 02:53:51;;;;;;;6.30;5.65;;;;;;;19.65;64.43;101305.06;6091156;23;20041;-87
2022/08/25 02:56:19;;;;;;;5.90;5.60;;;;;;;20.08;64.50;101367.34;6092255;23;20092;-87
2022/08/25 02:58:46;;;;;;;5.70;5.40;;;;;;;18.31;64.59;101086.91;6062957;23;20085;-87
2022/08/25 03:01:14;;;;;;;6.40;6.10;;;;;;;19.52;65.03;101305.22;6121685;23;20046;-86
2022/08/25 03:03:43;;;;;;;5.90;5.60;;;;;;;19.69;64.92;101326.97;6086868;23;20024;-86
2022/08/25 03:06:16;;;;;;;6.55;6.20;;;;;;;19.93;64.52;101356.13;6114508;23;20017;-86
2022/08/25 03:08:42;;;;;;;;;;;;;;;19.91;65.04;101353.59;6061620;23;20030;-86
2022/08/25 03:11:10;;;;;;;6.35;5.95;;;;;;;19.17;64.81;101236.19;6114968;23;20307;-88
2022/08/25 03:13:36;;;;;;;5.95;5.65;;;;;;;19.40;65.16;101295.53;6050457;23;20014;-87
2022/08/25 03:16:04;;;;;;;6.32;5.93;;;;;;;19.83;65.52;101352.53;6081761;23;20049;-87
2022/08/25 03:18:38;;;;;;;5.90;5.60;;;;;;;19.82;65.15;101348.16;6063224;23;20026;-87
2022/08/25 03:21:06;;;;;;;5.93;5.63;;;;;;;18.92;64.88;101216.00;6082020;23;20186;-86
2022/08/25 03:23:32;;;;;;;5.82;5.53;;;;;;;19.80;65.34;101353.59;6036489;23;20030;-87
2022/08/25 03:28:44;;;;;;;5.78;5.47;;;;;;;19.78;64.88;101350.22;6065151;23;20078;-87
2022/08/25 03:31:10;;;;;;;7.03;6.53;;;;;;;18.81;65.25;101190.25;6094711;23;20022;-86
2022/08/25 03:33:37;;;;;;;6.35;5.95;;;;;;;19.32;66.22;101288.19;6067662;23;20503;-86
2022/08/25 03:36:04;;;;;;;6.05;5.65;;;;;;;19.38;67.49;101310.78;6090886;23;20005;-87
2022/08/25 03:38:31;;;;;;;6.82;6.30;;;;;;;18.98;68.19;101274.00;6082497;23;20018;-87
2022/08/25 03:40:57;;;;;;;6.35;5.95;;;;;;;17.03;68.44;100978.19;6079981;23;20537;-87
2022/08/25 03:43:24;;;;;;;6.20;5.90;;;;;;;18.81;68.22;101298.44;6109967;23;20655;-87
2022/08/25 03:45:50;;;;;;;6.10;5.70;;;;;;;19.20;68.44;101357.47;6076873;23;20020;-86
2022/08/25 03:48:17;;;;;;;6.82;6.43;;;;;;;18.38;68.58;101243.22;6086363;23;20033;-86
2022/08/25 03:50:49;;;;;;;6.03;5.70;;;;;;;19.03;68.15;101325.06;6031321;23;20013;-86
2022/08/25 03:53:18;;;;;;;6.18;5.88;;;;;;;18.85;68.15;101299.91;6084539;23;20182;-86
2022/08/25 03:55:45;;;;;;;5.68;5.38;;;;;;;19.22;67.89;101342.25;6083642;23;20038;-86
2022/08/25 03:58:12;;;;;;;6.55;6.22;;;;;;;18.84;68.19;101271.59;6106546;23;20043;-87
2022/08/25 04:00:39;;;;;;;6.38;5.97;;;;;;;19.11;68.51;101312.00;6025453;23;20039;-89
2022/08/25 04:03:06;;;;;;;6.22;5.70;;;;;;;19.15;69.03;101314.44;6092540;23;20029;-87
2022/08/25 04:05:34;;;;;;;5.78;5.47;;;;;;;18.83;70.44;101267.25;6068953;23;20014;-86
2022/08/25 04:08:00;;;;;;;5.88;5.50;;;;;;;19.06;70.10;101305.34;6087319;23;20017;-87
2022/08/25 04:10:28;;;;;;;5.90;5.50;;;;;;;18.88;70.40;101294.31;6072421;23;20042;-88
2022/08/25 04:12:54;;;;;;;6.43;6.03;;;;;;;18.93;70.74;101305.47;6102855;23;20013;-87
2022/08/25 04:15:21;;;;;;;6.32;5.95;;;;;;;18.89;70.56;101304.00;6050202;23;20077;-86
2022/08/25 04:17:48;;;;;;;6.13;5.70;;;;;;;18.88;70.69;101321.78;6103404;23;20045;-87
2022/08/25 04:20:17;;;;;;;6.75;6.45;;;;;;;18.88;70.36;101310.28;6088163;23;20431;-87
2022/08/25 04:22:44;;;;;;;5.90;5.60;;;;;;;18.66;70.75;101284.47;6110925;23;20020;-86
2022/08/25 04:25:11;;;;;;;6.20;5.90;;;;;;;18.22;71.13;101217.84;6081185;23;20287;-86
2022/08/25 04:27:37;;;;;;;6.07;5.68;;;;;;;18.72;70.98;101284.88;6105985;23;20089;-88
2022/08/25 04:30:05;;;;;;;6.65;6.25;;;;;;;18.86;71.12;101313.09;6046725;23;20093;-88
2022/08/25 04:32:34;;;;;;;5.97;5.65;;;;;;;18.65;71.73;101280.97;6098617;23;20551;-87
2022/08/25 04:35:00;;;;;;;6.00;5.70;;;;;;;18.68;71.53;101291.38;6087774;23;20109;-87
2022/08/25 04:37:27;;;;;;;6.40;6.00;;;;;;;17.79;71.53;101136.06;6056303;23;20450;-87
2022/08/25 04:39:53;;;;;;;5.88;5.57;;;;;;;18.63;71.68;101274.94;6073082;23;20012;-87
2022/08/25 04:42:20;;;;;;;7.38;6.78;;;;;;;18.09;72.08;101195.81;6109590;23;20018;-86
2022/08/25 04:44:47;;;;;;;6.55;5.88;;;;;;;18.43;73.18;101241.91;6072626;23;20021;-88
2022/08/25 04:47:14;;;;;;;7.82;7.18;;;;;;;18.11;72.70;101159.34;6090243;23;20716;-88
2022/08/25 04:49:40;;;;;;;6.32;5.93;;;;;;;18.70;72.49;101222.13;6070999;23;20038;-85
2022/08/25 04:52:07;;;;;;;6.47;6.13;;;;;;;17.43;71.45;100985.78;6098054;23;20615;-86
2022/08/25 04:54:40;;;;;;;6.38;5.85;;;;;;;19.42;71.20;101284.75;6017765;23;20022;-86
2022/08/25 04:57:07;;;;;;;6.38;5.97;;;;;;;19.09;71.85;101241.25;6076853;23;20093;-87
2022/08/25 04:59:33;;;;;;;6.57;6.18;;;;;;;19.58;72.01;101300.34;6068223;23;20022;-87
2022/08/25 05:02:01;;;;;;;6.35;5.95;;;;;;;19.44;71.68;101273.00;6064000;23;20280;-87
2022/08/25 05:04:29;;;;;;;7.22;6.72;;;;;;;18.83;72.74;101192.78;6092253;23;20006;-87
2022/08/25 05:06:56;;;;;;;6.32;5.82;;;;;;;19.30;73.02;101290.13;6062809;23;20274;-87
2022/08/25 05:09:24;;;;;;;6.03;5.72;;;;;;;17.27;73.74;100978.97;6048109;23;20175;-87
2022/08/25 05:11:52;;;;;;;6.32;5.82;;;;;;;19.28;73.14;101285.88;6099085;23;20099;-86
2022/08/25 05:14:21;;;;;;;6.90;6.50;;;;;;;18.93;74.13;101236.31;6064582;23;20035;-87
2022/08/25 05:16:53;;;;;;;6.28;5.78;;;;;;;19.09;75.28;101266.03;6061839;23;20026;-86
2022/08/25 05:19:20;;;;;;;6.50;6.10;;;;;;;19.38;75.25;101291.31;6092622;23;20083;-86
2022/08/25 05:21:46;;;;;;;5.75;5.45;;;;;;;18.45;74.60;101123.03;6046533;23;20026;-87
2022/08/25 05:24:13;;;;;;;6.28;5.97;;;;;;;19.04;75.04;101201.75;6088528;23;20022;-86
2022/08/25 05:26:40;;;;;;;6.35;5.95;;;;;;;19.30;74.38;101231.56;6115387;23;20272;-87
2022/08/25 05:29:07;;;;;;;6.45;6.05;;;;;;;19.21;73.84;101220.81;6052817;23;20037;-87
2022/08/25 05:31:35;;;;;;;6.60;6.10;;;;;;;19.26;73.90;101184.03;6063635;23;20054;-86
2022/08/25 05:34:08;;;;;;;6.82;6.10;;;;;;;19.62;73.21;101224.56;6066124;23;20178;-86
2022/08/25 05:36:35;;;;;;;6.45;6.05;;;;;;;19.90;74.62;101240.00;6055906;23;20100;-86
2022/08/25 05:39:02;;;;;;;7.05;6.15;;;;;;;20.59;72.52;101246.69;6054377;23;20385;-86
2022/08/25 05:41:30;;;;;;;5.93;5.63;;;;;;;21.15;70.21;101218.72;6064770;23;20057;-86
2022/08/25 05:43:56;;;;;;;6.00;5.70;;;;;;;21.01;68.66;101062.50;6089526;23;20261;-88
2022/08/25 05:46:23;;;;;;;6.50;6.10;;;;;;;22.08;66.88;101160.44;6082508;23;20027;-86
2022/08/25 05:48:50;;;;;;;6.13;5.80;;;;;;;21.02;65.01;100951.25;6110377;23;20081;-87
2022/08/25 05:51:18;;;;;;;7.13;6.63;;;;;;;22.77;65.12;101214.56;6073106;23;20529;-86
2022/08/25 05:53:47;;;;;;;6.05;5.65;;;;;;;19.24;64.80;100725.63;6129585;23;20030;-86
2022/08/25 05:56:14;;;;;;;7.82;7.07;;;;;;;20.72;65.40;101012.59;6064227;23;20037;-87
2022/08/25 05:58:41;;;;;;;6.85;6.20;;;;;;;21.11;65.33;101098.03;6097134;23;20180;-86
2022/08/25 06:04:02;;;;;;;6.40;5.90;;;;;;;21.58;65.87;101163.28;6118574;23;20040;-85
2022/08/25 06:06:28;;;;;;;6.75;6.28;;;;;;;21.20;65.90;101099.00;6050207;23;20030;-86
2022/08/25 06:08:55;;;;;;;6.30;5.90;;;;;;;21.64;66.86;101192.94;6095733;23;20024;-86
2022/08/25 06:11:21;;;;;;;6.47;5.97;;;;;;;20.71;66.57;101020.75;6041817;23;20717;-86
2022/08/25 06:13:48;;;;;;;6.60;6.10;;;;;;;21.55;67.20;101152.88;6090394;23;20022;-85
2022/08/25 06:16:15;;;;;;;7.13;6.63;;;;;;;21.91;66.92;101194.09;6084329;23;20030;-86
2022/08/25 06:18:41;;;;;;;6.82;6.32;;;;;;;21.73;66.58;101137.84;6050866;23;20018;-87
2022/08/25 06:21:12;;;;;;;7.20;6.80;;;;;;;19.91;65.60;100820.81;6078879;23;20022;-85
2022/08/25 06:23:39;;;;;;;6.93;6.30;;;;;;;22.56;65.27;101212.97;6112278;23;20444;-86
2022/08/25 06:26:08;;;;;;;7.53;6.85;;;;;;;;;;6033128;23;20034;-86
2022/08/25 06:28:38;;;;;;;6.07;5.78;;;;;;;22.69;63.98;101201.94;6114719;23;20088;-86
2022/08/25 06:31:05;;;;;;;8.48;6.60;;;;;;;22.99;63.15;101218.72;6037590;23;20050;-85
2022/08/25 06:33:32;;;;;;;6.70;6.20;;;;;;;21.51;63.43;100995.59;6079062;23;20895;-86
2022/08/25 06:35:58;;;;;;;6.90;6.40;;;;;;;23.13;62.81;101215.56;6049056;23;20245;-86
2022/08/25 06:38:25;;;;;;;6.43;6.03;;;;;;;22.96;63.67;101201.13;6037168;23;20018;-86
2022/08/25 06:40:52;;;;;;;6.57;6.07;;;;;;;22.79;63.40;101145.69;6067800;23;20014;-84
2022/08/25 06:43:20;;;;;;;7.32;6.82;;;;;;;23.19;62.17;101184.66;6105680;23;20045;-87
2022/08/25 06:45:47;;;;;;;6.38;6.03;;;;;;;22.53;61.96;101035.88;6062405;23;20065;-87
2022/08/25 06:48:14;;;;;;;6.70;6.30;;;;;;;23.73;61.34;101217.69;6091505;23;20029;-85
2022/08/25 06:50:42;;;;;;;6.78;6.38;;;;;;;23.60;61.26;101179.75;6092547;23;20032;-86
2022/08/25 06:53:08;;;;;;;8.13;7.63;;;;;;;23.14;60.87;101103.97;6060567;23;20181;-85
2022/08/25 06:55:35;;;;;;;6.57;6.10;;;;;;;23.29;59.66;101092.56;6065328;23;20041;-88
2022/08/25 06:58:03;;;;;;;6.65;6.22;;;;;;;23.93;60.02;101253.25;6039931;23;20026;-85
2022/08/25 07:00:32;;;;;;;6.90;6.30;;;;;;;23.97;59.94;101225.13;6095696;23;20462;-87
2022/08/25 07:02:59;;;;;;;6.22;5.82;;;;;;;23.15;58.99;101071.66;6063843;23;20523;-87
2022/08/25 07:05:28;;;;;;;6.20;5.85;;;;;;;24.13;58.99;101228.97;6087253;23;20010;-87
2022/08/25 07:08:10;;;;;;;7.43;6.93;;;;;;;24.22;57.62;101220.81;6065322;23;20092;-87
2022/08/25 07:10:37;;;;;;;6.10;5.80;;;;;;;23.58;58.07;101112.06;6056544;23;20034;-86
2022/08/25 07:13:03;;;;;;;6.80;6.30;;;;;;;23.83;57.15;101119.31;6067661;23;20171;-88
2022/08/25 07:15:30;;;;;;;6.85;6.45;;;;;;;23.78;57.26;101099.34;6093495;23;20430;-87
2022/08/25 07:17:56;;;;;;;6.68;6.10;;;;;;;24.42;56.40;101201.84;6038887;23;20177;-86
2022/08/25 07:20:23;;;;;;;6.43;6.03;;;;;;;24.51;56.08;101195.53;6076889;23;20298;-85
2022/08/25 07:22:50;;;;;;;6.30;5.90;;;;;;;23.35;56.53;101007.22;6091707;23;20037;-87
2022/08/25 07:25:16;;;;;;;6.97;6.55;;;;;;;24.76;55.36;101209.94;6092612;23;20123;-86
2022/08/25 07:27:43;;;;;;;6.70;6.20;;;;;;;24.82;54.70;101208.47;6090318;23;20009;-85
2022/08/25 07:30:09;;;;;;;7.15;6.75;;;;;;;24.66;54.75;101180.53;6056422;23;20029;-88
2022/08/25 07:32:37;;;;;;;6.70;6.30;;;;;;;24.74;55.01;101181.59;6092942;23;20109;-87
2022/08/25 07:35:17;;;;;;;6.90;6.50;;;;;;;25.12;55.40;101208.88;6030551;23;20015;-86
2022/08/25 07:37:52;;;;;;;6.68;6.18;;;;;;;25.17;54.58;101202.03;6066138;23;20014;-86
2022/08/25 07:40:22;;;;;;;8.23;6.55;;;;;;;25.29;54.06;101194.53;6015999;23;20078;-87
2022/08/25 07:42:57;;;;;;;6.70;6.10;;;;;;;25.40;53.27;101204.16;6091242;23;20534;-86
2022/08/25 07:45:30;;;;;;;6.97;6.47;;;;;;;25.36;52.45;101213.53;6024177;23;20011;-86
2022/08/25 07:48:05;;;;;;;6.28;5.93;;;;;;;25.25;53.90;101177.06;6091396;23;20014;-85
2022/08/25 07:50:33;;;;;;;6.82;6.35;;;;;;;25.47;52.29;101202.47;6041916;23;20118;-87
2022/08/25 07:53:01;;;;;;;6.30;5.90;;;;;;;25.67;52.58;101201.16;6034117;23;20473;-87
2022/08/25 07:55:31;;;;;;;7.57;5.85;;;;;;;25.13;52.02;101111.22;6035262;23;20050;-88
2022/08/25 07:57:58;;;;;;;6.65;6.10;;;;;;;25.22;51.85;101104.88;6045198;23;20086;-86
2022/08/25 08:00:28;;;;;;;6.60;6.10;;;;;;;25.76;52.28;101199.31;6033612;23;20093;-86
2022/08/25 08:02:56;;;;;;;6.45;6.05;;;;;;;25.86;52.87;101218.81;6095554;23;20010;-88
2022/08/25 08:05:23;;;;;;;6.90;6.40;;;;;;;25.91;52.12;101194.13;6050641;23;20444;-87
2022/08/25 08:07:51;;;;;;;6.68;6.28;;;;;;;23.53;51.30;100799.06;6068833;23;20109;-86
2022/08/25 08:10:17;;;;;;;6.97;6.50;;;;;;;23.97;52.75;100859.69;6034267;23;20085;-87
2022/08/25 08:13:04;;;;;;;7.10;6.40;;;;;;;26.11;51.48;101188.41;6063870;23;20014;-87
2022/08/25 08:15:33;;;;;;;6.82;6.38;;;;;;;24.99;52.23;100997.22;6028548;23;20094;-86
2022/08/25 08:18:00;;;;;;;6.40;6.00;;;;;;;25.88;51.64;101144.19;6046380;23;20147;-85
2022/08/25 08:20:33;;;;;;;6.70;6.20;;;;;;;25.67;51.53;101072.13;6079871;23;20053;-84
2022/08/25 08:23:09;;;;;;;7.00;6.60;;;;;;;24.51;51.60;100860.16;6038736;23;20010;-85
2022/08/25 08:25:36;;;;;;;6.78;6.25;;;;;;;26.07;51.28;101113.41;6104395;23;20079;-85
2022/08/25 08:28:02;;;;;;;7.07;6.50;;;;;;;24.52;51.85;100853.78;5995631;23;20074;-85
2022/08/25 08:30:33;;;;;;;6.82;6.43;;;;;;;26.65;50.35;101170.63;6073107;23;20041;-84
2022/08/25 08:33:00;;;;;;;7.18;6.68;;;;;;;26.67;50.46;101154.31;6026228;23;20011;-87
2022/08/25 08:35:38;;;;;;;8.23;6.18;;;;;;;26.67;50.17;101130.91;6102055;23;20223;-86
2022/08/25 08:38:05;;;;;;;6.82;6.40;;;;;;;26.63;49.21;101088.38;6061394;23;20018;-86
2022/08/25 08:42:15;;;;;;;6.78;6.28;;;;;;;27.04;49.14;101139.28;6099251;23;20037;-86
2022/08/25 08:43:43;;;;;;;7.00;6.40;;;;;;;27.20;48.87;101143.75;6047851;23;20059;-86
2022/08/25 08:46:10;;;;;;;8.65;6.43;;;;;;;27.27;49.67;101123.19;6084409;23;20006;-87
2022/08/25 08:49:00;;;;;;;7.15;6.63;;;;;;;26.92;49.25;101025.75;6038874;23;20023;-87
2022/08/25 08:51:38;;;;;;;6.82;6.43;;;;;;;27.55;49.11;101104.59;6064296;23;20684;-87
2022/08/25 08:54:17;;;;;;;7.18;6.68;;;;;;;27.31;48.65;101065.22;6074476;23;20037;-85
2022/08/25 08:56:49;;;;;;;6.95;6.45;;;;;;;27.55;48.15;101090.28;6015964;23;20027;-86
2022/08/25 08:59:24;;;;;;;7.65;7.07;;;;;;;27.47;48.40;101060.72;6066917;23;20193;-85
2022/08/25 09:02:01;;;;;;;6.55;6.15;;;;;;;28.07;47.90;101139.91;6071895;23;20013;-85
2022/08/25 09:04:44;;;;;;;6.78;6.18;;;;;;;28.29;47.28;101132.75;6024500;23;20035;-85
2022/08/25 09:07:15;;;;;;;7.18;6.70;;;;;;;27.89;47.45;101053.94;6036064;23;20069;-85
2022/08/25 09:09:42;;;;;;;6.55;6.15;;;;;;;28.15;47.29;101069.66;6048158;23;20484;-87
2022/08/25 09:12:22;;;;;;;7.38;6.78;;;;;;;26.31;47.18;100763.75;6102561;23;20048;-86
2022/08/25 09:15:04;;;;;;;6.45;6.05;;;;;;;27.77;48.71;100975.31;6045129;23;20389;-86
2022/08/25 09:17:57;;;;;;;6.45;6.07;;;;;;;28.77;46.91;101108.88;6066874;23;20018;-86
2022/08/25 09:20:47;;;;;;;6.95;6.45;;;;;;;28.16;47.46;101007.38;6033210;23;20037;-86
2022/08/25 09:23:24;;;;;;;7.53;6.85;;;;;;;28.16;47.88;100998.44;6079977;23;20024;-86
2022/08/25 09:26:22;;;;;;;6.80;6.20;;;;;;;27.54;46.65;100856.75;6067777;23;20022;-86
2022/08/25 09:28:59;;;;;;;7.13;6.63;;;;;;;29.18;46.80;101114.53;5908292;23;20443;-87
2022/08/25 09:31:31;;;;;;;6.93;6.45;;;;;;;27.37;46.81;100862.34;6064444;23;20049;-86
2022/08/25 09:34:00;;;;;;;6.93;6.43;;;;;;;29.03;45.87;101068.63;6072907;23;20138;-86
2022/08/25 09:36:28;;;;;;;6.68;6.18;;;;;;;29.28;46.17;101089.06;6116405;23;20017;-87
2022/08/25 09:38:56;;;;;;;6.32;5.93;;;;;;;29.17;45.73;101079.63;6064748;23;20022;-86
2022/08/25 09:41:55;;;;;;;6.88;6.38;;;;;;;28.77;45.17;100973.81;6107611;23;20292;-87
2022/08/25 09:44:32;;;;;;;7.10;6.60;;;;;;;29.21;44.72;101010.63;6044859;23;20087;-87
2022/08/25 09:47:04;;;;;;;6.63;6.22;;;;;;;29.78;44.77;101104.28;6120157;23;20029;-87
2022/08/25 09:49:35;;;;;;;6.50;6.10;;;;;;;29.27;44.36;101004.44;6069874;23;20253;-87
2022/08/25 09:52:27;;;;;;;7.00;6.53;;;;;;;29.30;45.62;100997.78;6106700;23;20100;-89
2022/08/25 09:54:55;;;;;;;6.53;6.13;;;;;;;29.96;44.65;101102.94;6100068;23;20029;-87
2022/08/25 09:57:34;;;;;;;6.43;5.97;;;;;;;29.83;45.23;101104.53;6089472;23;20073;-87
2022/08/25 10:00:20;;;;;;;6.57;5.90;;;;;;;30.10;44.81;101096.56;6089434;23;20025;-87
2022/08/25 10:03:22;;;;;;;6.18;5.80;;;;;;;29.60;44.10;101047.09;6090609;23;20010;-87
2022/08/25 10:06:12;;;;;;;6.38;5.85;;;;;;;29.76;43.66;101060.34;6026036;23;20091;-87
2022/08/25 10:08:39;;;;;;;6.32;5.93;;;;;;;29.98;44.77;101111.72;6039583;23;20007;-87
2022/08/25 10:11:12;;;;;;;6.47;6.00;;;;;;;30.10;43.91;101096.56;6119365;23;20025;-87
2022/08/25 10:13:46;;;;;;;5.97;5.57;;;;;;;29.52;43.82;100968.81;6065882;23;20056;-87
2022/08/25 10:16:33;;;;;;;6.85;6.35;;;;;;;30.24;43.88;101048.75;6124055;23;20025;-87
2022/08/25 10:19:20;;;;;;;6.75;6.35;;;;;;;30.80;42.93;101082.94;6061446;23;20062;-86
2022/08/25 10:22:01;;;;;;;6.80;6.40;;;;;;;30.52;42.76;101037.84;6089132;23;20021;-87
2022/08/25 10:24:28;;;;;;;6.30;5.93;;;;;;;30.54;42.68;101052.03;6068557;23;20014;-86
2022/08/25 10:27:03;;;;;;;6.30;5.90;;;;;;;30.61;41.58;101049.31;6083467;23;20029;-87
2022/08/25 10:29:51;;;;;;;7.18;6.22;;;;;;;31.12;43.00;101075.13;6084649;23;20066;-87
2022/08/25 10:32:36;;;;;;;6.45;6.05;;;;;;;31.26;40.97;101074.09;6118945;23;20014;-88
2022/08/25 10:35:12;;;;;;;6.10;5.80;;;;;;;30.88;41.48;101025.03;6067988;23;20028;-87
2022/08/25 10:37:50;;;;;;;6.50;6.10;;;;;;;31.32;40.57;101073.25;6110223;23;20019;-87
2022/08/25 10:40:27;;;;;;;7.10;6.70;;;;;;;31.29;39.86;101065.53;6060053;23;20064;-88
2022/08/25 10:43:06;;;;;;;6.50;6.10;;;;;;;31.36;39.33;101066.38;6072407;23;20040;-87
2022/08/25 10:45:44;;;;;;;7.03;6.55;;;;;;;30.90;40.60;101026.50;6060449;23;20053;-87
2022/08/25 10:48:45;;;;;;;6.05;5.75;;;;;;;31.19;39.67;101071.38;6084322;23;20057;-88
2022/08/25 10:51:36;;;;;;;7.20;6.70;;;;;;;31.28;39.61;101066.59;6049552;23;20032;-87
2022/08/25 10:54:25;;;;;;;6.00;5.70;;;;;;;31.48;39.59;101044.09;6091223;23;20033;-86
2022/08/25 10:57:02;;;;;;;6.45;6.05;;;;;;;31.83;39.16;101041.91;6049712;23;20057;-85
2022/08/25 10:59:49;;;;;;;6.50;6.10;;;;;;;31.75;38.27;101004.16;6089504;23;20510;-86
2022/08/25 11:02:51;;;;;;;6.85;6.45;;;;;;;31.83;38.08;101046.53;6049527;23;20033;-88
2022/08/25 11:05:38;;;;;;;6.85;6.43;;;;;;;31.59;37.68;101051.56;6042557;23;20038;-86
2022/08/25 11:08:18;;;;;;;6.43;6.03;;;;;;;31.00;38.40;100993.56;6044244;23;20035;-86
2022/08/25 11:11:01;;;;;;;6.57;6.07;;;;;;;30.61;38.77;100998.72;6118344;23;20755;-88
2022/08/25 11:13:40;;;;;;;6.97;6.47;;;;;;;30.22;39.83;100899.22;6047731;23;20097;-86
2022/08/25 11:16:14;;;;;;;6.85;6.30;;;;;;;31.67;38.68;101040.50;6115115;23;20036;-86
2022/08/25 11:18:54;;;;;;;6.32;5.93;;;;;;;31.86;38.67;101010.81;6061346;23;20464;-87
2022/08/25 11:21:40;;;;;;;6.53;6.13;;;;;;;32.29;36.58;101030.09;6100533;23;20074;-87
2022/08/25 11:24:31;;;;;;;7.07;6.57;;;;;;;32.22;35.48;101036.63;6087895;23;20030;-86
2022/08/25 11:27:05;;;;;;;6.50;6.10;;;;;;;31.80;34.49;100977.22;6091630;23;20021;-86
2022/08/25 11:29:35;;;;;;;6.30;5.90;;;;;;;31.81;34.46;101035.88;6091483;23;20069;-85
2022/08/25 11:32:05;;;;;;;6.53;6.13;;;;;;;31.63;35.30;101003.97;6056941;23;20042;-86
2022/08/25 11:34:34;;;;;;;6.13;5.80;;;;;;;31.51;35.64;100946.84;6090089;23;20030;-87
2022/08/25 11:37:24;;;;;;;6.28;5.90;;;;;;;31.63;34.63;101014.00;6060117;23;20142;-85
2022/08/25 11:40:01;;;;;;;6.13;5.82;;;;;;;31.97;34.53;101034.56;6087928;23;20086;-87
2022/08/25 11:42:41;;;;;;;7.10;6.60;;;;;;;32.30;35.25;101029.06;6057701;23;20030;-87
2022/08/25 11:45:20;;;;;;;7.15;6.65;;;;;;;32.55;35.34;101015.56;6087480;23;20026;-86
2022/08/25 11:47:49;;;;;;;6.75;6.35;;;;;;;32.61;35.08;101021.19;6082815;23;20078;-86
2022/08/25 11:50:28;;;;;;;7.07;6.68;;;;;;;32.71;36.12;101016.94;6111033;23;20084;-86
2022/08/25 11:53:15;;;;;;;6.95;6.53;;;;;;;32.67;34.85;100991.25;6071210;23;20018;-86